Terminal Aerodrome Forecast
Issued by NWS

Home | Current Version | Previous Version | Text Only | Print | Product List | Glossary Off
Versions: 1 2 3 4 5 6 7 8 9 10 11 12 13 14 15 16 17 18 19 20 21 22 23 24 25 26 27 28 29 30

000
FTUS43 KTOP 231500 AAA
TAFMHK
TAF AMD
KMHK 231540Z 2316/2412 14009KT P6SM BKN008 OVC010
     FM231900 14011KT P6SM SHRA BKN010 OVC025
     FM232300 12009KT 4SM RA VCTS BKN007CB OVC025=

USA.gov is the U.S. government's official web portal to all federal, state and local government web resources and services.